Hovedside
METAR-TAF:

METAR-TAF

Lufthavner :

Ontario Municipal Airport

Ontario, Oregon, USA

breddegrad: 44-01-10N, lengdegrad: 117-00-35W, høyde over havet: 667 m

Gjeldene værobservasjon

Denne rapporten ble laget for 29 minutter siden, klokken 09:53 UTC
Vind 3 kt fra Vest-sørvest
Temperatur -6°C
Luftfuktighet 79%
Trykk 1028 hPa
Sikt: 16.1 km
Skyfri himmel

METAR: KONO 190953Z AUTO 25003KT 10SM CLR M06/M09 A3035 RMK AO2 SLP299 T10611094

Tid: 03:22 (10:22 UTC)


TAF: fraværende

Værobservasjoner og værvarsel for over 4000 flyplasser (METAR- og TAF-rapporter).

Tilgjengelige stasjoner er representert av de røde og gule prikkene på kartet.

Hold musepekeren over prikken for å se navnet på stasjonen.

Klikk så for å se værobservasjoner og -varsler.

For å forandre kartet kan du klikke på den grønne knappen med svart kryss for å zoome inn, på den grønne knappen med strek for å zoome ut, eller på de grønne pilene for å se tilstøtende kart.


METAR-TAF: